sensor_id;sensor_type;location;lat;lon;timestamp;P1;durP1;ratioP1;P2;durP2;ratioP2
71902;SDS011;59778;50.310;18.780;2023-06-05T00:05:26;11.07;;;2.93;;
71902;SDS011;59778;50.310;18.780;2023-06-05T00:20:48;10.23;;;2.70;;
71902;SDS011;59778;50.310;18.780;2023-06-05T00:36:09;8.13;;;2.60;;
71902;SDS011;59778;50.310;18.780;2023-06-05T00:51:32;9.07;;;2.70;;
71902;SDS011;59778;50.310;18.780;2023-06-05T01:06:54;9.23;;;2.60;;
71902;SDS011;59778;50.310;18.780;2023-06-05T01:22:18;7.33;;;2.43;;
71902;SDS011;59778;50.310;18.780;2023-06-05T01:37:40;8.70;;;2.57;;
71902;SDS011;59778;50.310;18.780;2023-06-05T01:53:03;9.10;;;2.20;;
71902;SDS011;59778;50.310;18.780;2023-06-05T02:08:25;6.30;;;2.00;;
71902;SDS011;59778;50.310;18.780;2023-06-05T02:23:49;8.40;;;2.30;;
71902;SDS011;59778;50.310;18.780;2023-06-05T02:39:12;5.70;;;1.63;;
71902;SDS011;59778;50.310;18.780;2023-06-05T02:54:33;6.10;;;1.90;;
71902;SDS011;59778;50.310;18.780;2023-06-05T03:09:55;7.57;;;2.40;;
71902;SDS011;59778;50.310;18.780;2023-06-05T03:25:16;8.33;;;2.27;;
71902;SDS011;59778;50.310;18.780;2023-06-05T03:40:38;7.00;;;2.03;;
71902;SDS011;59778;50.310;18.780;2023-06-05T03:56:00;21.50;;;2.40;;
71902;SDS011;59778;50.310;18.780;2023-06-05T04:11:21;7.40;;;2.30;;
71902;SDS011;59778;50.310;18.780;2023-06-05T04:26:43;7.90;;;2.83;;
71902;SDS011;59778;50.310;18.780;2023-06-05T04:42:04;8.77;;;3.23;;
71902;SDS011;59778;50.310;18.780;2023-06-05T04:57:26;8.60;;;2.83;;
71902;SDS011;59778;50.310;18.780;2023-06-05T05:12:48;9.77;;;2.40;;
71902;SDS011;59778;50.310;18.780;2023-06-05T05:28:09;9.73;;;3.10;;
71902;SDS011;59778;50.310;18.780;2023-06-05T05:43:30;8.50;;;3.00;;
71902;SDS011;59778;50.310;18.780;2023-06-05T05:58:52;8.53;;;2.67;;
71902;SDS011;59778;50.310;18.780;2023-06-05T06:14:13;13.10;;;2.70;;
71902;SDS011;59778;50.310;18.780;2023-06-05T06:29:34;5.93;;;2.20;;
71902;SDS011;59778;50.310;18.780;2023-06-05T06:44:56;10.47;;;2.83;;
71902;SDS011;59778;50.310;18.780;2023-06-05T07:00:18;9.40;;;2.77;;
71902;SDS011;59778;50.310;18.780;2023-06-05T07:15:41;7.87;;;2.40;;
71902;SDS011;59778;50.310;18.780;2023-06-05T07:31:02;7.00;;;2.30;;
71902;SDS011;59778;50.310;18.780;2023-06-05T07:46:24;9.07;;;2.47;;
71902;SDS011;59778;50.310;18.780;2023-06-05T08:01:45;7.07;;;2.23;;
71902;SDS011;59778;50.310;18.780;2023-06-05T08:17:10;9.47;;;2.93;;
71902;SDS011;59778;50.310;18.780;2023-06-05T08:32:32;6.83;;;2.40;;
71902;SDS011;59778;50.310;18.780;2023-06-05T08:47:54;23.63;;;3.50;;
71902;SDS011;59778;50.310;18.780;2023-06-05T09:03:15;7.43;;;2.00;;
71902;SDS011;59778;50.310;18.780;2023-06-05T09:35:17;4.13;;;1.93;;
71902;SDS011;59778;50.310;18.780;2023-06-05T09:50:38;7.03;;;2.57;;
71902;SDS011;59778;50.310;18.780;2023-06-05T10:06:00;7.40;;;2.47;;
71902;SDS011;59778;50.310;18.780;2023-06-05T10:21:23;6.87;;;2.33;;
71902;SDS011;59778;50.310;18.780;2023-06-05T10:52:36;6.03;;;2.43;;
71902;SDS011;59778;50.310;18.780;2023-06-05T11:08:19;5.83;;;2.73;;
71902;SDS011;59778;50.310;18.780;2023-06-05T11:23:41;7.53;;;2.50;;
71902;SDS011;59778;50.310;18.780;2023-06-05T11:39:43;6.37;;;3.03;;
71902;SDS011;59778;50.310;18.780;2023-06-05T11:55:11;6.87;;;3.27;;
71902;SDS011;59778;50.310;18.780;2023-06-05T12:10:36;6.03;;;2.90;;
71902;SDS011;59778;50.310;18.780;2023-06-05T12:26:00;7.53;;;3.00;;
71902;SDS011;59778;50.310;18.780;2023-06-05T12:41:25;7.13;;;3.07;;
71902;SDS011;59778;50.310;18.780;2023-06-05T12:56:46;7.63;;;3.10;;
71902;SDS011;59778;50.310;18.780;2023-06-05T13:12:09;5.83;;;3.33;;
71902;SDS011;59778;50.310;18.780;2023-06-05T13:27:30;8.87;;;3.60;;
71902;SDS011;59778;50.310;18.780;2023-06-05T13:42:51;5.70;;;2.90;;
71902;SDS011;59778;50.310;18.780;2023-06-05T13:58:14;7.43;;;3.10;;
71902;SDS011;59778;50.310;18.780;2023-06-05T14:13:35;6.57;;;3.00;;
71902;SDS011;59778;50.310;18.780;2023-06-05T14:28:57;7.40;;;2.90;;
71902;SDS011;59778;50.310;18.780;2023-06-05T14:44:18;8.93;;;2.97;;
71902;SDS011;59778;50.310;18.780;2023-06-05T14:59:39;7.30;;;2.77;;
71902;SDS011;59778;50.310;18.780;2023-06-05T15:15:01;8.17;;;2.70;;
71902;SDS011;59778;50.310;18.780;2023-06-05T15:30:22;6.17;;;2.83;;
71902;SDS011;59778;50.310;18.780;2023-06-05T15:45:44;8.10;;;3.00;;
71902;SDS011;59778;50.310;18.780;2023-06-05T16:01:05;8.57;;;3.13;;
71902;SDS011;59778;50.310;18.780;2023-06-05T16:16:27;9.50;;;2.93;;
71902;SDS011;59778;50.310;18.780;2023-06-05T16:31:48;11.13;;;3.20;;
71902;SDS011;59778;50.310;18.780;2023-06-05T16:47:09;7.60;;;3.10;;
71902;SDS011;59778;50.310;18.780;2023-06-05T17:02:31;9.77;;;3.30;;
71902;SDS011;59778;50.310;18.780;2023-06-05T17:17:52;11.63;;;3.90;;
71902;SDS011;59778;50.310;18.780;2023-06-05T17:33:13;11.67;;;3.90;;
71902;SDS011;59778;50.310;18.780;2023-06-05T17:48:35;9.67;;;4.53;;
71902;SDS011;59778;50.310;18.780;2023-06-05T18:03:57;9.77;;;4.40;;
71902;SDS011;59778;50.310;18.780;2023-06-05T18:19:21;11.40;;;4.30;;
71902;SDS011;59778;50.310;18.780;2023-06-05T18:34:43;10.10;;;4.70;;
71902;SDS011;59778;50.310;18.780;2023-06-05T18:50:04;10.57;;;4.80;;
71902;SDS011;59778;50.310;18.780;2023-06-05T19:05:27;15.23;;;5.10;;
71902;SDS011;59778;50.310;18.780;2023-06-05T19:20:48;12.57;;;5.03;;
71902;SDS011;59778;50.310;18.780;2023-06-05T19:36:11;13.30;;;4.80;;
71902;SDS011;59778;50.310;18.780;2023-06-05T19:51:33;15.77;;;4.90;;
71902;SDS011;59778;50.310;18.780;2023-06-05T20:06:58;10.37;;;4.63;;
71902;SDS011;59778;50.310;18.780;2023-06-05T20:22:22;9.73;;;5.03;;
71902;SDS011;59778;50.310;18.780;2023-06-05T20:37:44;12.67;;;5.00;;
71902;SDS011;59778;50.310;18.780;2023-06-05T20:53:07;10.83;;;5.23;;
71902;SDS011;59778;50.310;18.780;2023-06-05T21:08:29;11.83;;;5.97;;
71902;SDS011;59778;50.310;18.780;2023-06-05T21:23:50;11.70;;;4.97;;
71902;SDS011;59778;50.310;18.780;2023-06-05T21:39:11;12.70;;;6.07;;
71902;SDS011;59778;50.310;18.780;2023-06-05T21:54:34;10.73;;;5.30;;
71902;SDS011;59778;50.310;18.780;2023-06-05T22:09:56;11.33;;;5.00;;
71902;SDS011;59778;50.310;18.780;2023-06-05T22:25:17;10.43;;;4.00;;
71902;SDS011;59778;50.310;18.780;2023-06-05T22:40:38;6.13;;;2.87;;
71902;SDS011;59778;50.310;18.780;2023-06-05T22:55:59;7.30;;;2.70;;
71902;SDS011;59778;50.310;18.780;2023-06-05T23:11:20;4.67;;;2.13;;
71902;SDS011;59778;50.310;18.780;2023-06-05T23:26:42;7.57;;;2.60;;
71902;SDS011;59778;50.310;18.780;2023-06-05T23:42:03;7.73;;;2.10;;
71902;SDS011;59778;50.310;18.780;2023-06-05T23:57:25;5.87;;;1.97;;
